Time;durP1;ratioP1;P1;durP2;ratioP2;P2;SDS_P1;SDS_P2;PMS_P1;PMS_P2;Temp;Humidity;BMP_temperature;BMP_pressure;BME280_temperature;BME280_humidity;BME280_pressure;Samples;Min_cycle;Max_cycle;Signal;HPM_P1;HPM_P2
2023/07/15 00:00:14;;;;;;;0.30;0.30;;;;;;;21.38;50.87;96398.53;29395;250;63005;-53
2023/07/15 00:00:50;;;;;;;0.30;0.30;;;;;;;21.42;50.38;96392.28;29395;223;63009;-53
2023/07/15 00:01:25;;;;;;;0.30;0.30;;;;;;;21.45;50.54;96386.00;29395;232;63005;-55
2023/07/15 00:01:56;;;;;;;0.30;0.30;;;;;;;21.46;50.61;96395.87;29394;379;64013;-53
2023/07/15 00:02:28;;;;;;;0.30;0.30;;;;;;;21.48;50.71;96399.06;29395;219;63004;-53
2023/07/15 00:02:59;;;;;;;0.30;0.30;;;;;;;21.47;50.38;96386.44;29395;208;63009;-53
2023/07/15 00:03:31;;;;;;;0.30;0.30;;;;;;;21.45;50.74;96402.56;29395;213;63004;-53
2023/07/15 00:04:04;;;;;;;0.30;0.30;;;;;;;21.47;50.45;96400.22;29394;217;64013;-53
2023/07/15 00:04:35;;;;;;;0.30;0.30;;;;;;;21.45;50.43;96391.53;29394;249;64008;-59
2023/07/15 00:05:29;;;;;;;0.30;0.30;;;;;;;21.45;50.37;96397.06;29395;249;63019;-53
2023/07/15 00:06:02;;;;;;;0.30;0.30;;;;;;;21.46;50.46;96390.38;29394;209;64009;-53
2023/07/15 00:06:33;;;;;;;0.30;0.30;;;;;;;21.44;50.29;96395.47;29395;237;63009;-52
2023/07/15 00:07:05;;;;;;;0.30;0.30;;;;;;;21.42;50.76;96395.84;29395;251;63005;-53
2023/07/15 00:07:37;;;;;;;0.30;0.30;;;;;;;21.42;50.49;96392.28;29395;206;63012;-53
2023/07/15 00:08:09;;;;;;;0.30;0.30;;;;;;;21.41;50.82;96394.25;29395;198;63005;-53
2023/07/15 00:08:40;;;;;;;0.30;0.30;;;;;;;21.43;50.60;96393.88;29395;216;63009;-53
2023/07/15 00:09:11;;;;;;;0.30;0.30;;;;;;;21.41;50.63;96394.25;29395;252;63016;-52
2023/07/15 00:09:43;;;;;;;0.30;0.30;;;;;;;21.42;50.71;96397.78;29395;207;63009;-53
2023/07/15 00:10:15;;;;;;;0.30;0.30;;;;;;;21.43;50.46;96400.19;29395;263;63004;-53
2023/07/15 00:10:46;;;;;;;0.30;0.30;;;;;;;21.43;50.73;96399.38;29395;215;63009;-61
2023/07/15 00:11:37;;;;;;;0.30;0.30;;;;;;;21.42;50.58;96397.78;29394;376;64009;-59
2023/07/15 00:12:10;;;;;;;0.30;0.30;;;;;;;21.39;50.47;96400.12;29395;210;63008;-53
2023/07/15 00:12:41;;;;;;;0.30;0.30;;;;;;;21.37;50.76;96396.94;29395;219;63005;-53
2023/07/15 00:13:15;;;;;;;0.30;0.30;;;;;;;21.34;50.56;96403.22;29395;218;63009;-53
2023/07/15 00:13:46;;;;;;;0.30;0.30;;;;;;;21.34;51.01;96403.22;29395;233;63005;-61
2023/07/15 00:14:21;;;;;;;0.30;0.30;;;;;;;21.36;51.02;96400.09;29395;231;63009;-53
2023/07/15 00:14:52;;;;;;;0.30;0.30;;;;;;;21.36;51.02;96400.88;29394;202;64009;-53
2023/07/15 00:15:25;;;;;;;0.30;0.30;;;;;;;21.39;51.17;96399.34;29395;205;63009;-53
2023/07/15 00:15:57;;;;;;;0.30;0.30;;;;;;;21.43;50.83;96399.38;29395;225;63017;-52
2023/07/15 00:16:30;;;;;;;0.30;0.30;;;;;;;21.42;50.95;96393.06;29395;260;63014;-57
2023/07/15 00:17:02;;;;;;;0.30;0.30;;;;;;;21.44;50.87;96400.97;29394;199;64009;-53
2023/07/15 00:17:33;;;;;;;0.30;0.30;;;;;;;21.44;50.83;96401.78;29395;241;63009;-53
2023/07/15 00:18:05;;;;;;;0.30;0.30;;;;;;;21.45;51.06;96397.06;29395;254;63004;-59
2023/07/15 00:18:36;;;;;;;0.30;0.30;;;;;;;21.44;50.92;96398.22;29395;224;63008;-53
2023/07/15 00:19:08;;;;;;;0.30;0.30;;;;;;;21.43;50.77;96399.38;29395;248;63004;-53
2023/07/15 00:19:39;;;;;;;0.30;0.30;;;;;;;21.41;50.64;96397.00;29395;225;63008;-53
2023/07/15 00:20:14;;;;;;;0.30;0.30;;;;;;;21.38;51.01;96398.53;29395;219;63005;-53
2023/07/15 00:20:47;;;;;;;0.40;0.40;;;;;;;21.37;50.94;96396.94;29395;350;63009;-54
2023/07/15 00:21:24;;;;;;;0.35;0.35;;;;;;;21.38;51.18;96398.53;29395;240;63011;-63
2023/07/15 00:21:55;;;;;;;0.30;0.30;;;;;;;21.38;51.10;96395.78;29394;272;64013;-62
2023/07/15 00:22:26;;;;;;;0.30;0.30;;;;;;;21.42;51.16;96403.31;29395;286;63005;-54
2023/07/15 00:22:58;;;;;;;0.35;0.35;;;;;;;21.40;51.25;96401.72;29395;200;63009;-55
2023/07/15 00:23:30;;;;;;;0.35;0.35;;;;;;;21.42;51.27;96403.31;29395;217;63004;-52
2023/07/15 00:24:01;;;;;;;0.30;0.30;;;;;;;21.43;51.15;96391.09;29395;199;63019;-62
2023/07/15 00:24:33;;;;;;;0.30;0.30;;;;;;;21.43;51.24;96393.88;29395;196;63004;-53
2023/07/15 00:25:09;;;;;;;0.30;0.30;;;;;;;21.43;51.31;96393.88;29395;196;63009;-53
2023/07/15 00:25:46;;;;;;;0.77;0.77;;;;;;;21.43;51.19;96391.09;29394;281;64009;-62
2023/07/15 00:26:17;;;;;;;0.30;0.30;;;;;;;21.41;51.19;96399.75;29395;206;63008;-53
2023/07/15 00:26:52;;;;;;;0.30;0.30;;;;;;;21.39;51.43;96399.34;29395;208;63005;-52
2023/07/15 00:27:25;;;;;;;0.30;0.30;;;;;;;21.39;51.22;96399.34;29395;282;63009;-60
2023/07/15 00:27:58;;;;;;;1.85;1.85;;;;;;;21.37;51.12;96396.16;29394;208;64001;-63
2023/07/15 00:28:30;;;;;;;0.32;0.32;;;;;;;21.36;51.07;96400.09;29395;225;63018;-52
2023/07/15 00:29:03;;;;;;;0.30;0.30;;;;;;;21.38;51.14;96404.06;29395;271;63005;-62
2023/07/15 00:29:35;;;;;;;0.30;0.30;;;;;;;21.38;51.27;96398.53;29395;234;63009;-54
2023/07/15 00:30:08;;;;;;;0.30;0.30;;;;;;;21.37;51.47;96396.94;29395;208;63005;-53
2023/07/15 00:30:39;;;;;;;0.30;0.30;;;;;;;21.38;51.08;96398.53;29395;204;63009;-53
2023/07/15 00:31:14;;;;;;;0.30;0.30;;;;;;;21.39;51.31;96402.91;29395;203;63004;-53
2023/07/15 00:31:46;;;;;;;0.30;0.30;;;;;;;21.38;51.63;96397.75;29394;218;64013;-54
2023/07/15 00:32:18;;;;;;;0.73;0.73;;;;;;;21.37;51.29;96391.44;29394;241;64009;-52
2023/07/15 00:32:51;;;;;;;0.30;0.30;;;;;;;21.38;51.55;96393.03;29395;220;63009;-65
2023/07/15 00:33:22;;;;;;;0.30;0.30;;;;;;;21.43;51.17;96396.63;29394;226;63999;-52
2023/07/15 00:33:54;;;;;;;0.30;0.30;;;;;;;21.42;51.12;96397.78;29395;232;63008;-62
2023/07/15 00:34:28;;;;;;;0.30;0.30;;;;;;;21.42;51.47;96397.78;29395;261;63007;-53
2023/07/15 00:35:00;;;;;;;0.30;0.30;;;;;;;21.38;51.21;96395.78;29395;210;63014;-52
2023/07/15 00:35:32;;;;;;;0.30;0.30;;;;;;;21.34;51.57;96397.69;29395;267;63005;-52
2023/07/15 00:36:05;;;;;;;0.30;0.30;;;;;;;21.34;51.49;96397.69;29395;228;63009;-53
2023/07/15 00:36:36;;;;;;;0.30;0.30;;;;;;;21.35;51.67;96402.06;29395;210;63005;-62
2023/07/15 00:37:07;;;;;;;0.30;0.30;;;;;;;21.36;51.86;96400.88;29395;232;63009;-53
2023/07/15 00:37:39;;;;;;;0.82;0.82;;;;;;;21.37;51.89;96399.72;29395;228;63005;-53
2023/07/15 00:38:10;;;;;;;0.30;0.30;;;;;;;21.37;51.63;96402.47;29394;202;64004;-53
2023/07/15 00:38:43;;;;;;;0.30;0.30;;;;;;;21.37;51.85;96407.19;29395;278;63004;-53
2023/07/15 00:39:15;;;;;;;0.30;0.30;;;;;;;21.36;51.63;96395.34;29395;238;63009;-65
2023/07/15 00:39:47;;;;;;;0.30;0.30;;;;;;;21.41;51.65;96397.00;29395;235;63016;-65
2023/07/15 00:40:21;;;;;;;0.30;0.30;;;;;;;21.42;51.34;96397.78;29395;210;63009;-64
2023/07/15 00:40:53;;;;;;;0.40;0.40;;;;;;;21.39;51.94;96394.63;29395;225;63010;-53
2023/07/15 00:41:28;;;;;;;0.30;0.30;;;;;;;21.35;51.63;96399.28;29395;210;63008;-53
2023/07/15 00:42:06;;;;;;;0.30;0.30;;;;;;;21.33;51.89;96407.16;29395;223;63005;-53
2023/07/15 00:43:08;;;;;;;0.40;0.40;;;;;;;21.33;52.01;96403.59;29395;232;63009;-60
2023/07/15 00:44:01;;;;;;;0.35;0.35;;;;;;;21.31;52.44;96403.97;29416;197;64009;-53
2023/07/15 00:44:32;;;;;;;0.32;0.32;;;;;;;21.32;52.17;96402.00;29395;225;63009;-52
2023/07/15 00:45:03;;;;;;;0.30;0.30;;;;;;;21.32;52.22;96404.75;29395;290;63007;-53
2023/07/15 00:45:34;;;;;;;0.30;0.30;;;;;;;21.28;52.32;96404.72;29394;218;64009;-53
2023/07/15 00:47:03;;;;;;;0.30;0.30;;;;;;;21.27;52.39;96414.16;29394;205;64009;-53
2023/07/15 00:47:45;;;;;;;0.50;0.50;;;;;;;21.26;52.66;96407.03;29395;285;63009;-53
2023/07/15 00:48:26;;;;;;;0.30;0.30;;;;;;;21.22;52.59;96405.41;29395;320;63004;-53
2023/07/15 00:49:26;;;;;;;0.30;0.30;;;;;;;21.24;52.59;96406.62;29416;301;64013;-52
2023/07/15 00:49:58;;;;;;;0.30;0.30;;;;;;;21.26;52.50;96407.03;29394;297;64009;-53
2023/07/15 00:50:29;;;;;;;0.30;0.30;;;;;;;21.25;52.71;96408.22;29395;198;63009;-53
2023/07/15 00:51:02;;;;;;;0.30;0.30;;;;;;;21.21;52.88;96410.13;29395;276;63009;-61
2023/07/15 00:51:42;;;;;;;0.30;0.30;;;;;;;21.23;52.81;96405.03;29395;232;63009;-61
2023/07/15 00:52:16;;;;;;;0.30;0.30;;;;;;;21.26;52.98;96406.25;29439;241;63005;-53
2023/07/15 00:52:47;;;;;;;0.30;0.30;;;;;;;21.25;53.27;96405.44;29394;300;64013;-52
2023/07/15 00:53:20;;;;;;;0.30;0.30;;;;;;;21.23;53.69;96418.03;29395;241;63005;-61
2023/07/15 00:53:54;;;;;;;0.30;0.30;;;;;;;21.19;53.17;96417.94;29395;235;63009;-61
2023/07/15 00:54:26;;;;;;;0.40;0.40;;;;;;;21.18;53.35;96423.84;29395;244;63004;-52
2023/07/15 00:54:58;;;;;;;0.40;0.40;;;;;;;21.16;53.14;96424.22;29395;197;63009;-59
2023/07/15 00:55:30;;;;;;;0.40;0.40;;;;;;;21.18;53.40;96421.06;29395;225;63004;-60
2023/07/15 00:56:01;;;;;;;0.40;0.40;;;;;;;21.20;53.51;96425.06;29395;218;63008;-60
2023/07/15 00:56:35;;;;;;;0.30;0.30;;;;;;;21.18;53.22;96424.63;29395;262;63009;-53
2023/07/15 00:57:11;;;;;;;0.40;0.40;;;;;;;21.25;53.32;96418.44;29395;197;63024;-57
2023/07/15 00:57:42;;;;;;;0.30;0.30;;;;;;;21.27;53.41;96414.16;29395;205;63016;-52
2023/07/15 00:58:15;;;;;;;0.30;0.30;;;;;;;21.30;53.50;96421.69;29394;209;64014;-52
2023/07/15 00:58:49;;;;;;;0.30;0.30;;;;;;;21.31;53.17;96419.72;29394;203;64009;-52
2023/07/15 00:59:20;;;;;;;0.30;0.30;;;;;;;21.29;53.01;96417.34;29395;196;63009;-52
2023/07/15 00:59:58;;;;;;;0.30;0.30;;;;;;;21.27;53.55;96418.87;29395;204;63005;-60
2023/07/15 01:00:31;;;;;;;0.30;0.30;;;;;;;21.25;53.42;96410.97;29395;219;63009;-54
2023/07/15 01:01:03;;;;;;;0.30;0.30;;;;;;;21.28;53.58;96414.94;29395;218;63010;-52
2023/07/15 01:01:35;;;;;;;0.40;0.40;;;;;;;21.29;53.18;96411.81;29395;214;63009;-53
2023/07/15 01:02:15;;;;;;;0.30;0.30;;;;;;;21.29;53.37;96411.81;29395;199;63010;-53
2023/07/15 01:02:48;;;;;;;0.30;0.30;;;;;;;21.31;53.46;96417.75;29394;252;64013;-53
2023/07/15 01:03:19;;;;;;;0.30;0.30;;;;;;;21.29;53.61;96417.34;29395;226;63014;-52
2023/07/15 01:03:54;;;;;;;0.30;0.30;;;;;;;21.27;53.61;96414.16;29395;222;63023;-53
2023/07/15 01:04:26;;;;;;;0.40;0.40;;;;;;;21.24;53.71;96409.38;29395;232;63005;-53
2023/07/15 01:04:57;;;;;;;0.30;0.30;;;;;;;21.23;53.61;96432.63;29395;206;63017;-52
2023/07/15 01:05:30;;;;;;;0.30;0.30;;;;;;;21.21;54.02;96418.41;29395;257;63005;-60
2023/07/15 01:06:01;;;;;;;0.30;0.30;;;;;;;21.24;53.86;96411.34;29395;240;63009;-52
2023/07/15 01:06:35;;;;;;;0.30;0.30;;;;;;;21.26;53.98;96412.56;29395;275;63005;-53
2023/07/15 01:07:07;;;;;;;0.43;0.43;;;;;;;21.26;53.97;96409.81;29395;314;63009;-52
2023/07/15 01:07:38;;;;;;;1.02;1.02;;;;;;;21.27;53.61;96414.16;29394;245;64009;-59
2023/07/15 01:08:09;;;;;;;0.30;0.30;;;;;;;21.27;53.76;96405.88;29394;221;64013;-61
2023/07/15 01:08:41;;;;;;;0.30;0.30;;;;;;;21.27;53.95;96414.16;29395;223;63004;-59
2023/07/15 01:09:13;;;;;;;0.50;0.50;;;;;;;21.27;53.62;96413.34;29395;196;63009;-54
2023/07/15 01:09:46;;;;;;;0.30;0.30;;;;;;;21.27;53.83;96403.13;29394;220;64009;-53
2023/07/15 01:10:18;;;;;;;0.40;0.40;;;;;;;21.26;53.78;96409.81;29395;224;63008;-53
2023/07/15 01:10:49;;;;;;;0.30;0.30;;;;;;;21.25;54.12;96416.50;29395;213;63009;-57
2023/07/15 01:11:21;;;;;;;0.30;0.30;;;;;;;21.22;54.30;96408.97;29395;228;63008;-52
2023/07/15 01:11:52;;;;;;;0.52;0.52;;;;;;;21.21;54.13;96415.66;29395;255;63005;-52
2023/07/15 01:12:24;;;;;;;0.30;0.30;;;;;;;21.22;54.39;96410.91;29395;280;63009;-59
2023/07/15 01:12:56;;;;;;;0.30;0.30;;;;;;;21.20;54.03;96416.78;29394;197;64009;-52
2023/07/15 01:13:28;;;;;;;0.30;0.30;;;;;;;21.21;53.94;96407.38;29395;212;63009;-52
2023/07/15 01:14:00;;;;;;;0.30;0.30;;;;;;;21.22;54.47;96406.19;29395;210;63005;-52
2023/07/15 01:14:31;;;;;;;0.30;0.30;;;;;;;21.23;53.87;96407.00;29395;216;63009;-59
2023/07/15 01:15:03;;;;;;;0.30;0.30;;;;;;;21.23;54.26;96407.00;29395;259;63005;-64
2023/07/15 01:15:35;;;;;;;0.30;0.30;;;;;;;21.23;54.13;96399.50;29395;218;63004;-59
2023/07/15 01:16:06;;;;;;;0.30;0.30;;;;;;;21.22;54.36;96411.72;29394;224;64009;-52
2023/07/15 01:16:37;;;;;;;0.37;0.37;;;;;;;21.23;54.20;96407.78;29395;325;63009;-51
2023/07/15 01:17:08;;;;;;;0.30;0.30;;;;;;;21.20;54.36;96408.50;29395;224;63004;-52
2023/07/15 01:17:39;;;;;;;0.30;0.30;;;;;;;21.24;54.19;96414.91;29395;220;63009;-53
2023/07/15 01:18:11;;;;;;;0.30;0.30;;;;;;;21.25;54.25;96410.97;29395;236;63004;-59
2023/07/15 01:18:42;;;;;;;0.30;0.30;;;;;;;21.25;54.07;96410.19;29395;272;63009;-68
2023/07/15 01:19:18;;;;;;;0.30;0.30;;;;;;;21.25;54.26;96405.44;29395;291;63005;-62
2023/07/15 01:19:50;;;;;;;0.30;0.30;;;;;;;21.29;54.11;96405.50;29396;313;63025;-60
2023/07/15 01:20:25;;;;;;;0.30;0.30;;;;;;;21.27;54.06;96397.59;29396;270;63005;-51
2023/07/15 01:20:58;;;;;;;0.30;0.30;;;;;;;21.23;54.09;96409.75;29396;235;63009;-65
2023/07/15 01:21:35;;;;;;;0.30;0.30;;;;;;;21.24;54.08;96403.87;29395;212;64009;-52
2023/07/15 01:22:07;;;;;;;0.40;0.40;;;;;;;21.24;54.24;96403.87;29396;307;63009;-53
2023/07/15 01:22:38;;;;;;;0.30;0.30;;;;;;;21.23;54.44;96407.78;29396;222;63005;-52
2023/07/15 01:23:10;;;;;;;0.30;0.30;;;;;;;21.24;54.26;96403.87;29396;272;63009;-51
2023/07/15 01:23:41;;;;;;;0.30;0.30;;;;;;;21.23;54.37;96404.22;29395;222;64009;-64
2023/07/15 01:24:12;;;;;;;0.30;0.30;;;;;;;21.19;54.28;96406.91;29396;202;63013;-53
2023/07/15 01:24:44;;;;;;;0.30;0.30;;;;;;;21.18;54.53;96405.31;29396;241;63004;-54
2023/07/15 01:25:16;;;;;;;0.30;0.30;;;;;;;21.17;54.77;96409.25;29396;282;63009;-63
2023/07/15 01:25:47;;;;;;;0.30;0.30;;;;;;;21.14;54.74;96421.03;29396;235;63007;-52
2023/07/15 01:26:18;;;;;;;0.40;0.40;;;;;;;21.16;54.47;96417.91;29396;224;63009;-51
2023/07/15 01:26:55;;;;;;;0.30;0.30;;;;;;;21.21;54.51;96410.13;29396;328;63005;-65
2023/07/15 01:27:27;;;;;;;0.30;0.30;;;;;;;21.19;54.52;96406.91;29396;309;63009;-52
2023/07/15 01:27:58;;;;;;;0.30;0.30;;;;;;;21.19;54.67;96406.13;29396;345;63005;-53
2023/07/15 01:28:30;;;;;;;0.30;0.30;;;;;;;21.17;54.89;96408.44;29395;236;64013;-65
2023/07/15 01:29:01;;;;;;;0.30;0.30;;;;;;;21.16;54.73;96418.69;29396;203;63005;-54
2023/07/15 01:29:32;;;;;;;0.30;0.30;;;;;;;21.14;54.68;96415.50;29396;266;63009;-63
2023/07/15 01:30:06;;;;;;;0.30;0.30;;;;;;;21.13;54.90;96418.66;29396;227;63005;-63
2023/07/15 01:30:37;;;;;;;0.30;0.30;;;;;;;21.12;54.43;96412.34;29396;236;63009;-54
2023/07/15 01:31:09;;;;;;;0.28;0.28;;;;;;;21.13;54.99;96424.19;29396;214;63004;-53
2023/07/15 01:31:43;;;;;;;0.30;0.30;;;;;;;21.10;54.81;96414.69;29396;212;63009;-53
2023/07/15 01:32:15;;;;;;;0.30;0.30;;;;;;;21.07;55.02;96415.44;29396;325;63004;-64
2023/07/15 01:32:46;;;;;;;0.30;0.30;;;;;;;21.07;54.76;96420.94;29395;243;64013;-53
2023/07/15 01:33:18;;;;;;;0.30;0.30;;;;;;;21.07;54.85;96415.44;29396;218;63000;-53
2023/07/15 01:33:49;;;;;;;0.30;0.30;;;;;;;21.04;54.80;96422.47;29396;229;63009;-53
2023/07/15 01:34:21;;;;;;;0.30;0.30;;;;;;;21.03;54.88;96420.09;29396;356;63005;-53
2023/07/15 01:34:52;;;;;;;0.30;0.30;;;;;;;21.02;54.86;96424.03;29395;252;64002;-53
2023/07/15 01:35:24;;;;;;;0.30;0.30;;;;;;;21.04;54.79;96419.72;29396;231;63005;-53
2023/07/15 01:35:56;;;;;;;0.30;0.30;;;;;;;21.03;54.69;96420.09;29396;204;63009;-53
2023/07/15 01:36:28;;;;;;;0.30;0.30;;;;;;;21.01;54.89;96411.41;29396;203;63005;-59
2023/07/15 01:37:00;;;;;;;0.30;0.30;;;;;;;21.00;54.87;96421.63;29396;199;63009;-60
2023/07/15 01:37:31;;;;;;;0.30;0.30;;;;;;;20.98;55.10;96412.94;29396;213;63005;-51
2023/07/15 01:38:06;;;;;;;0.30;0.30;;;;;;;20.99;55.07;96410.97;29396;268;63009;-60
2023/07/15 01:38:37;;;;;;;0.30;0.30;;;;;;;21.00;55.26;96416.13;29396;263;63008;-60
2023/07/15 01:39:09;;;;;;;0.30;0.30;;;;;;;21.00;54.75;96420.84;29396;251;63009;-53
2023/07/15 01:39:40;;;;;;;0.30;0.30;;;;;;;20.99;55.55;96419.25;29396;227;63004;-53
2023/07/15 01:40:13;;;;;;;0.30;0.30;;;;;;;20.97;55.45;96416.06;29395;198;64006;-53
2023/07/15 01:40:44;;;;;;;0.30;0.30;;;;;;;20.97;55.12;96414.09;29396;204;63004;-53
2023/07/15 01:41:16;;;;;;;0.30;0.30;;;;;;;21.01;54.85;96414.16;29396;223;63009;-60
2023/07/15 01:41:47;;;;;;;0.30;0.30;;;;;;;21.02;55.24;96413.78;29396;243;63005;-63
2023/07/15 01:42:18;;;;;;;0.30;0.30;;;;;;;21.04;54.91;96410.66;29396;248;63014;-52
2023/07/15 01:42:50;;;;;;;0.30;0.30;;;;;;;21.02;55.10;96413.78;29396;198;63005;-52
2023/07/15 01:43:21;;;;;;;0.30;0.30;;;;;;;21.05;54.79;96413.03;29395;306;64013;-61
2023/07/15 01:43:55;;;;;;;0.30;0.30;;;;;;;21.05;54.95;96410.28;29396;196;63005;-53
2023/07/15 01:44:26;;;;;;;0.30;0.30;;;;;;;21.04;54.49;96411.44;29396;202;63009;-58
2023/07/15 01:44:58;;;;;;;0.30;0.30;;;;;;;21.03;54.69;96409.84;29395;319;64009;-53
2023/07/15 01:45:29;;;;;;;0.30;0.30;;;;;;;21.04;54.88;96410.66;29396;246;63009;-63
2023/07/15 01:46:03;;;;;;;0.30;0.30;;;;;;;21.03;54.85;96420.09;29396;279;63004;-52
2023/07/15 01:46:36;;;;;;;0.30;0.30;;;;;;;21.03;54.69;96414.56;29396;200;63009;-57
2023/07/15 01:47:07;;;;;;;0.30;0.30;;;;;;;21.01;54.95;96417.72;29396;227;63004;-59
2023/07/15 01:47:38;;;;;;;0.30;0.30;;;;;;;21.01;54.67;96416.91;29396;218;63009;-52
2023/07/15 01:48:09;;;;;;;0.30;0.30;;;;;;;21.00;55.40;96413.34;29396;232;63004;-61
2023/07/15 01:48:41;;;;;;;0.30;0.30;;;;;;;21.00;54.82;96416.13;29396;196;63008;-58
2023/07/15 01:49:13;;;;;;;0.28;0.28;;;;;;;21.00;55.12;96412.56;29396;214;63005;-52
2023/07/15 01:49:44;;;;;;;0.30;0.30;;;;;;;20.99;55.46;96408.22;29396;291;63020;-53
2023/07/15 01:50:15;;;;;;;0.30;0.30;;;;;;;20.98;55.24;96409.38;29395;242;64009;-52
2023/07/15 01:50:48;;;;;;;0.30;0.30;;;;;;;20.97;55.09;96410.53;29396;261;63009;-53
2023/07/15 01:51:19;;;;;;;0.30;0.30;;;;;;;20.96;55.10;96415.25;29396;273;63005;-52
2023/07/15 01:51:51;;;;;;;0.30;0.30;;;;;;;20.96;54.85;96408.94;29396;234;63009;-54
2023/07/15 01:52:22;;;;;;;0.30;0.30;;;;;;;20.96;55.21;96408.94;29396;261;63005;-54
2023/07/15 01:52:53;;;;;;;0.30;0.30;;;;;;;20.95;55.12;96405.41;29396;218;63009;-53
2023/07/15 01:53:24;;;;;;;0.30;0.30;;;;;;;20.95;55.25;96415.62;29396;219;63011;-53
2023/07/15 01:53:55;;;;;;;0.30;0.30;;;;;;;20.95;55.12;96405.41;29396;224;63009;-58
2023/07/15 01:54:27;;;;;;;0.30;0.30;;;;;;;20.94;55.58;96405.78;29396;236;63004;-53
2023/07/15 01:54:58;;;;;;;0.30;0.30;;;;;;;20.92;55.22;96408.09;29395;259;64009;-53
2023/07/15 01:55:29;;;;;;;0.30;0.30;;;;;;;20.93;55.13;96406.94;29395;222;64008;-53
2023/07/15 01:56:01;;;;;;;0.30;0.30;;;;;;;20.93;54.87;96409.69;29396;210;63008;-53
2023/07/15 01:56:32;;;;;;;0.30;0.30;;;;;;;20.92;54.99;96408.09;29396;199;63005;-53
2023/07/15 01:57:04;;;;;;;0.30;0.30;;;;;;;20.94;55.01;96414.03;29396;255;63009;-52
2023/07/15 01:57:36;;;;;;;0.30;0.30;;;;;;;20.94;55.35;96411.28;29396;200;63005;-53
2023/07/15 01:58:07;;;;;;;0.30;0.30;;;;;;;20.95;54.96;96412.88;29396;219;63009;-58
2023/07/15 01:58:41;;;;;;;0.30;0.30;;;;;;;20.95;55.18;96402.63;29396;212;63005;-53
2023/07/15 01:59:12;;;;;;;0.30;0.30;;;;;;;20.95;54.96;96405.41;29396;216;63005;-53
2023/07/15 01:59:44;;;;;;;0.35;0.35;;;;;;;20.94;55.36;96400.25;29396;247;63005;-55
2023/07/15 02:00:16;;;;;;;0.30;0.30;;;;;;;20.94;54.90;96405.78;29396;202;63009;-53
2023/07/15 02:00:48;;;;;;;0.30;0.30;;;;;;;20.93;55.03;96404.97;29395;200;64009;-52
2023/07/15 02:01:19;;;;;;;0.30;0.30;;;;;;;20.92;54.85;96400.62;29396;206;63017;-52
2023/07/15 02:01:53;;;;;;;0.30;0.30;;;;;;;20.92;55.37;96403.37;29396;213;63004;-54
2023/07/15 02:02:24;;;;;;;0.30;0.30;;;;;;;20.91;55.30;96410.06;29396;270;63022;-55
2023/07/15 02:02:55;;;;;;;0.30;0.30;;;;;;;20.91;55.43;96404.53;29396;206;63004;-52
2023/07/15 02:03:26;;;;;;;0.30;0.30;;;;;;;20.91;54.99;96401.00;29397;202;63008;-53
2023/07/15 02:04:01;;;;;;;0.30;0.30;;;;;;;20.91;55.44;96401.00;29397;264;63005;-52
2023/07/15 02:04:32;;;;;;;0.30;0.30;;;;;;;20.90;55.09;96399.41;29397;274;63009;-53
2023/07/15 02:05:04;;;;;;;0.30;0.30;;;;;;;20.91;55.10;96393.53;29397;218;63005;-53
2023/07/15 02:05:35;;;;;;;0.30;0.30;;;;;;;20.90;55.18;96396.66;29397;244;63009;-52
2023/07/15 02:06:09;;;;;;;0.30;0.30;;;;;;;20.91;55.09;96404.53;29396;235;64009;-52
2023/07/15 02:06:41;;;;;;;0.30;0.30;;;;;;;20.93;54.83;96409.69;29397;282;63016;-51
2023/07/15 02:07:12;;;;;;;0.30;0.30;;;;;;;20.94;54.93;96405.78;29397;229;63005;-52
2023/07/15 02:07:44;;;;;;;0.30;0.30;;;;;;;20.93;54.94;96398.66;29397;227;63009;-59
2023/07/15 02:08:15;;;;;;;0.30;0.30;;;;;;;20.94;54.67;96400.25;29397;205;63014;-57
2023/07/15 02:08:47;;;;;;;0.30;0.30;;;;;;;20.94;54.84;96400.25;29397;244;63009;-52
2023/07/15 02:09:18;;;;;;;0.30;0.30;;;;;;;20.95;54.79;96396.31;29397;209;63004;-51
2023/07/15 02:09:49;;;;;;;0.30;0.30;;;;;;;20.95;54.58;96402.63;29397;196;63025;-57
2023/07/15 02:10:23;;;;;;;0.30;0.30;;;;;;;20.96;54.55;96397.91;29397;220;63004;-51
2023/07/15 02:10:54;;;;;;;0.30;0.30;;;;;;;20.96;54.48;96390.44;29397;202;63008;-51
2023/07/15 02:11:25;;;;;;;0.30;0.30;;;;;;;20.98;54.39;96395.59;29396;219;64009;-52
2023/07/15 02:11:57;;;;;;;0.30;0.30;;;;;;;20.98;54.24;96395.59;29397;271;63009;-51
2023/07/15 02:12:28;;;;;;;0.30;0.30;;;;;;;20.98;54.69;96399.12;29397;231;63005;-57
2023/07/15 02:12:59;;;;;;;0.30;0.30;;;;;;;20.99;54.57;96397.19;29397;206;63009;-51
2023/07/15 02:13:31;;;;;;;0.30;0.30;;;;;;;20.98;54.73;96395.59;29397;203;63005;-52
2023/07/15 02:14:02;;;;;;;0.30;0.30;;;;;;;20.99;54.41;96397.19;29397;210;63009;-51
2023/07/15 02:14:38;;;;;;;0.30;0.30;;;;;;;20.98;54.56;96390.06;29397;198;63005;-51
2023/07/15 02:15:09;;;;;;;0.30;0.30;;;;;;;20.98;54.39;96395.59;29397;284;63009;-51
2023/07/15 02:15:47;;;;;;;0.30;0.30;;;;;;;20.96;54.60;96393.19;29397;204;63004;-51
2023/07/15 02:16:19;;;;;;;0.30;0.30;;;;;;;20.96;54.27;96392.41;29397;290;63009;-52
2023/07/15 02:16:50;;;;;;;0.30;0.30;;;;;;;20.95;54.42;96394.38;29396;280;64009;-52
2023/07/15 02:17:22;;;;;;;0.30;0.30;;;;;;;20.95;54.82;96390.81;29396;221;63008;-52
2023/07/15 02:17:54;;;;;;;0.30;0.30;;;;;;;20.93;54.98;96395.91;29396;242;63004;-51
2023/07/15 02:18:25;;;;;;;0.30;0.30;;;;;;;20.93;54.59;96393.16;29396;241;63008;-51
2023/07/15 02:18:57;;;;;;;0.30;0.30;;;;;;;20.92;54.81;96392.34;29396;309;63004;-51
2023/07/15 02:19:30;;;;;;;0.30;0.30;;;;;;;20.92;54.41;96392.34;29396;246;63009;-51
2023/07/15 02:20:05;;;;;;;0.30;0.30;;;;;;;20.92;54.41;96386.84;29396;210;64009;-51
2023/07/15 02:20:38;;;;;;;0.30;0.30;;;;;;;20.92;54.50;96392.34;29396;258;63024;-51
2023/07/15 02:21:09;;;;;;;0.30;0.30;;;;;;;20.93;54.27;96384.88;29396;222;63005;-52
2023/07/15 02:21:40;;;;;;;0.30;0.30;;;;;;;20.94;54.28;96387.25;29396;197;63009;-57
2023/07/15 02:22:12;;;;;;;0.30;0.30;;;;;;;20.95;54.44;96380.56;29396;206;63005;-51
2023/07/15 02:22:43;;;;;;;0.30;0.30;;;;;;;20.97;53.88;96382.97;29396;196;63009;-51
2023/07/15 02:23:15;;;;;;;0.30;0.30;;;;;;;20.97;54.18;96380.22;29396;218;64009;-51
2023/07/15 02:23:46;;;;;;;0.30;0.30;;;;;;;20.97;53.90;96374.69;29396;223;63009;-52
2023/07/15 02:24:17;;;;;;;0.30;0.30;;;;;;;20.98;53.97;96376.28;29396;223;63016;-58
2023/07/15 02:24:49;;;;;;;0.30;0.30;;;;;;;20.98;54.17;96390.88;29396;212;63009;-51
2023/07/15 02:25:21;;;;;;;0.30;0.30;;;;;;;20.97;54.38;96392.03;29396;219;63004;-51
2023/07/15 02:25:52;;;;;;;0.30;0.30;;;;;;;20.97;54.20;96382.97;29396;298;63014;-51
2023/07/15 02:26:23;;;;;;;0.30;0.30;;;;;;;20.95;54.48;96379.78;29396;219;63005;-57
2023/07/15 02:26:54;;;;;;;0.30;0.30;;;;;;;20.95;54.17;96374.25;29396;219;63009;-60
2023/07/15 02:27:26;;;;;;;0.30;0.30;;;;;;;20.95;54.42;96386.09;29396;197;63015;-57
2023/07/15 02:27:57;;;;;;;0.30;0.30;;;;;;;20.97;54.04;96377.44;29396;240;63009;-51
2023/07/15 02:28:33;;;;;;;0.30;0.30;;;;;;;20.99;54.34;96369.59;29395;202;64009;-58
2023/07/15 02:29:04;;;;;;;0.30;0.30;;;;;;;20.99;53.86;96369.59;29396;210;63009;-58
2023/07/15 02:29:36;;;;;;;0.30;0.30;;;;;;;20.98;54.10;96371.56;29396;294;63005;-58
2023/07/15 02:30:09;;;;;;;0.30;0.30;;;;;;;20.98;54.03;96373.53;29396;200;63009;-61
2023/07/15 02:30:42;;;;;;;0.30;0.30;;;;;;;20.99;53.96;96369.59;29395;264;64009;-60
2023/07/15 02:31:13;;;;;;;0.30;0.30;;;;;;;20.98;53.83;96360.53;29396;212;63019;-58
2023/07/15 02:31:49;;;;;;;0.30;0.30;;;;;;;21.00;54.26;96369.22;29396;309;63004;-59
2023/07/15 02:32:40;;;;;;;0.30;0.30;;;;;;;21.00;53.75;96371.19;29396;230;63009;-58
2023/07/15 02:33:12;;;;;;;0.30;0.30;;;;;;;21.01;54.11;96367.25;29418;202;63009;-59
2023/07/15 02:33:43;;;;;;;0.30;0.30;;;;;;;21.02;53.64;96366.09;29375;199;63009;-59
2023/07/15 02:34:16;;;;;;;0.30;0.30;;;;;;;21.03;53.73;96371.25;29396;216;63011;-59
2023/07/15 02:34:47;;;;;;;0.30;0.30;;;;;;;21.01;53.53;96368.06;29396;254;63009;-59
2023/07/15 02:35:18;;;;;;;0.30;0.30;;;;;;;21.02;53.73;96364.13;29395;210;64005;-60
2023/07/15 02:35:50;;;;;;;0.30;0.30;;;;;;;21.03;53.45;96367.69;29395;209;64013;-58
2023/07/15 02:36:21;;;;;;;0.30;0.30;;;;;;;21.03;53.88;96370.44;29396;205;63005;-59
2023/07/15 02:36:54;;;;;;;0.30;0.30;;;;;;;21.04;53.49;96377.56;29396;202;63009;-60